Time;durP1;ratioP1;P1;durP2;ratioP2;P2;SDS_P1;SDS_P2;PMS_P1;PMS_P2;Temp;Humidity;BMP_temperature;BMP_pressure;BME280_temperature;BME280_humidity;BME280_pressure;Samples;Min_cycle;Max_cycle;Signal;HPM_P1;HPM_P2
2021/01/26 05:47:35;;;;;;;14.93;6.00;;;;;;;;;;6173870;22;884446;-82
2021/01/26 05:50:01;;;;;;;16.05;6.20;;;;;;;;;;6245916;23;20004;-82
2021/01/26 05:52:39;;;;;;;12.48;6.90;;;;;;;;;;6247420;23;20003;-82
2021/01/26 05:55:16;;;;;;;13.45;7.10;;;;;;;;;;6246389;23;20007;-82
2021/01/26 05:57:42;;;;;;;12.50;6.70;;;;;;;;;;6215222;23;20019;-82
2021/01/26 06:00:12;;;;;;;15.32;6.90;;;;;;;;;;6218128;23;20386;-82
2021/01/26 06:02:37;;;;;;;14.95;5.95;;;;;;;;;;6217223;23;20004;-82
2021/01/26 06:05:10;;;;;;;16.50;6.32;;;;;;;;;;6216227;23;20108;-81
2021/01/26 06:07:35;;;;;;;14.15;6.55;;;;;;;;;;6212356;23;20000;-82
2021/01/26 06:10:14;;;;;;;12.48;6.38;;;;;;;;;;6215568;23;20087;-82
2021/01/26 06:12:50;;;;;;;13.90;6.50;;;;;;;;;;6216073;23;20339;-82
2021/01/26 06:15:19;;;;;;;14.18;6.85;;;;;;;;;;6216127;23;20370;-82
2021/01/26 06:17:45;;;;;;;11.75;6.18;;;;;;;;;;6214173;23;20078;-81
2021/01/26 06:20:14;;;;;;;15.65;7.45;;;;;;;;;;6215781;23;20427;-81
2021/01/26 06:22:40;;;;;;;15.27;6.40;;;;;;;;;;6216321;23;20435;-81
2021/01/26 06:25:12;;;;;;;14.10;6.43;;;;;;;;;;6215473;23;20001;-81
2021/01/26 06:27:38;;;;;;;;;;;;;;;;;;6216784;23;20055;-82
2021/01/26 06:30:09;;;;;;;13.18;5.88;;;;;;;;;;6215968;23;19916;-81
2021/01/26 06:32:38;;;;;;;14.05;7.43;;;;;;;;;;6216255;23;20004;-81
2021/01/26 06:35:10;;;;;;;13.68;6.03;;;;;;;;;;6215564;23;20001;-82
2021/01/26 06:37:51;;;;;;;13.05;5.78;;;;;;;;;;6215951;23;20000;-82
2021/01/26 06:40:23;;;;;;;12.80;7.13;;;;;;;;;;6216152;23;20008;-82
2021/01/26 06:42:53;;;;;;;12.40;5.55;;;;;;;;;;6215719;23;20005;-82
2021/01/26 06:45:18;;;;;;;12.00;5.72;;;;;;;;;;6215480;23;20005;-81
2021/01/26 06:47:50;;;;;;;17.65;5.80;;;;;;;;;;6213931;23;20035;-81
2021/01/26 06:50:19;;;;;;;12.02;5.85;;;;;;;;;;6215905;23;20334;-82
2021/01/26 06:52:47;;;;;;;9.45;5.53;;;;;;;;;;6216834;23;20423;-82
2021/01/26 06:55:28;;;;;;;14.65;7.63;;;;;;;;;;6216372;23;20001;-83
2021/01/26 06:58:02;;;;;;;11.30;6.07;;;;;;;;;;6217355;23;19997;-82
2021/01/26 07:00:39;;;;;;;9.57;5.38;;;;;;;;;;6217123;23;20443;-83
2021/01/26 07:03:31;;;;;;;9.85;5.60;;;;;;;;;;6216275;23;20087;-83
2021/01/26 07:06:03;;;;;;;10.27;4.43;;;;;;;;;;6216995;23;20004;-82
2021/01/26 07:08:28;;;;;;;;;;;;;;;;;;6217479;23;20023;-83
2021/01/26 07:11:11;;;;;;;11.13;5.28;;;;;;;;;;6216442;23;19908;-83
2021/01/26 07:13:36;;;;;;;9.57;5.35;;;;;;;;;;6216100;23;20005;-83
2021/01/26 07:16:05;;;;;;;10.07;4.82;;;;;;;;;;6215402;23;20490;-83
2021/01/26 07:18:31;;;;;;;10.10;4.75;;;;;;;;;;6217596;23;20024;-82
2021/01/26 07:21:15;;;;;;;11.82;5.07;;;;;;;;;;6217249;23;20008;-83
2021/01/26 07:24:10;;;;;;;13.55;4.70;;;;;;;;;;6215639;23;20008;-83
2021/01/26 07:26:47;;;;;;;12.23;5.50;;;;;;;;;;6217201;23;20030;-83
2021/01/26 07:29:20;;;;;;;8.35;4.18;;;;;;;;;;6217494;23;20009;-83
2021/01/26 07:31:54;;;;;;;12.57;6.88;;;;;;;;;;6216308;23;20582;-83
2021/01/26 07:34:39;;;;;;;13.35;6.60;;;;;;;;;;6215643;23;20004;-83
2021/01/26 07:37:11;;;;;;;12.73;5.63;;;;;;;;;;6217515;23;20334;-82
2021/01/26 07:39:41;;;;;;;15.23;6.40;;;;;;;;;;6218529;23;20018;-83
2021/01/26 07:42:11;;;;;;;31.63;14.85;;;;;;;;;;6219706;23;20071;-83
2021/01/26 07:44:43;;;;;;;38.17;19.80;;;;;;;;;;6219187;23;20000;-83
2021/01/26 07:47:18;;;;;;;37.55;19.27;;;;;;;;;;6218193;23;20016;-83
2021/01/26 07:49:49;;;;;;;21.45;11.35;;;;;;;;;;6220355;23;20012;-83
2021/01/26 07:52:17;;;;;;;21.02;12.18;;;;;;;;;;6217987;23;20000;-83
2021/01/26 07:54:55;;;;;;;34.05;20.15;;;;;;;;;;6219891;23;20027;-83
2021/01/26 07:57:25;;;;;;;34.53;18.00;;;;;;;;;;6219878;23;20005;-83
2021/01/26 07:59:52;;;;;;;57.10;28.27;;;;;;;;;;6218235;23;20000;-83
2021/01/26 08:02:21;;;;;;;80.25;38.22;;;;;;;;;;6218617;23;20076;-83
2021/01/26 08:04:47;;;;;;;100.07;45.67;;;;;;;;;;6218993;23;19996;-83
2021/01/26 08:07:24;;;;;;;117.97;45.83;;;;;;;;;;6219485;23;20047;-83
2021/01/26 08:09:50;;;;;;;81.87;36.80;;;;;;;;;;6218373;23;20083;-81
2021/01/26 08:12:20;;;;;;;33.75;17.55;;;;;;;;;;6215724;23;20019;-81
2021/01/26 08:14:48;;;;;;;43.70;18.20;;;;;;;;;;6216486;23;20012;-81
2021/01/26 08:17:27;;;;;;;55.00;26.23;;;;;;;;;;6229207;23;20019;-83
2021/01/26 08:20:00;;;;;;;30.02;12.45;;;;;;;;;;6219646;23;20090;-83
2021/01/26 08:22:34;;;;;;;12.23;7.10;;;;;;;;;;6221863;23;19997;-83
2021/01/26 08:25:12;;;;;;;11.75;5.85;;;;;;;;;;6218246;23;20007;-83
2021/01/26 08:27:37;;;;;;;15.18;5.53;;;;;;;;;;6220157;23;20007;-82
2021/01/26 08:30:05;;;;;;;9.48;5.55;;;;;;;;;;6219720;23;20008;-82
2021/01/26 08:32:30;;;;;;;13.02;5.78;;;;;;;;;;6219910;23;20001;-82
2021/01/26 08:34:56;;;;;;;9.00;4.10;;;;;;;;;;6218214;23;20005;-83
2021/01/26 08:37:24;;;;;;;9.85;4.53;;;;;;;;;;6217454;23;20331;-82
2021/01/26 08:39:51;;;;;;;12.23;5.25;;;;;;;;;;6218514;23;20008;-82
2021/01/26 08:42:35;;;;;;;10.18;5.70;;;;;;;;;;6217585;23;20610;-83
2021/01/26 08:45:01;;;;;;;11.25;4.85;;;;;;;;;;6216705;23;20007;-82
2021/01/26 08:47:45;;;;;;;13.90;5.75;;;;;;;;;;6217751;23;20397;-83
2021/01/26 08:50:19;;;;;;;19.70;5.05;;;;;;;;;;6218191;23;20549;-81
2021/01/26 08:52:45;;;;;;;7.80;4.40;;;;;;;;;;6217339;23;20008;-81
2021/01/26 08:55:31;;;;;;;11.02;4.75;;;;;;;;;;6215505;23;20004;-82
2021/01/26 08:57:56;;;;;;;15.15;5.55;;;;;;;;;;6217269;23;20001;-82
2021/01/26 09:00:27;;;;;;;11.20;6.18;;;;;;;;;;6216950;23;20012;-82
2021/01/26 09:02:53;;;;;;;8.27;4.43;;;;;;;;;;6217812;23;20340;-82
2021/01/26 09:05:38;;;;;;;10.68;4.20;;;;;;;;;;6214967;23;20009;-85
2021/01/26 09:08:07;;;;;;;9.43;5.50;;;;;;;;;;6217946;23;20503;-82
2021/01/26 09:10:40;;;;;;;10.32;5.32;;;;;;;;;;6218030;23;20059;-81
2021/01/26 09:13:14;;;;;;;16.90;6.55;;;;;;;;;;6217053;23;20072;-82
2021/01/26 09:15:50;;;;;;;14.77;4.32;;;;;;;;;;6217640;23;20005;-81
2021/01/26 09:18:17;;;;;;;10.82;3.85;;;;;;;;;;6215907;23;20595;-80
2021/01/26 09:20:43;;;;;;;8.82;3.97;;;;;;;;;;6212607;23;20080;-80
2021/01/26 09:23:10;;;;;;;11.60;4.75;;;;;;;;;;6214108;23;20008;-80
2021/01/26 09:25:38;;;;;;;9.15;4.07;;;;;;;;;;6215366;23;20004;-82
2021/01/26 09:28:06;;;;;;;10.93;3.92;;;;;;;;;;6217070;23;20087;-82
2021/01/26 09:30:32;;;;;;;8.00;4.03;;;;;;;;;;6217094;23;20323;-81
2021/01/26 09:33:00;;;;;;;11.52;4.70;;;;;;;;;;6216305;23;20004;-82
2021/01/26 09:35:25;;;;;;;9.40;3.72;;;;;;;;;;6216487;23;20054;-82
2021/01/26 09:40:11;;;;;;;12.73;3.25;;;;;;;;;;5087020;27;20438;-81
2021/01/26 09:42:37;;;;;;;10.23;4.03;;;;;;;;;;5089406;28;20025;-81
2021/01/26 09:45:08;;;;;;;8.77;4.20;;;;;;;;;;5064587;28;20034;-81
2021/01/26 09:47:34;;;;;;;11.55;4.68;;;;;;;;;;5085113;28;20024;-82
2021/01/26 09:50:11;;;;;;;7.18;3.38;;;;;;;;;;5085108;28;20496;-81
2021/01/26 09:52:37;;;;;;;13.27;3.97;;;;;;;;;;5081975;28;20031;-82
2021/01/26 09:55:08;;;;;;;11.50;4.15;;;;;;;;;;5081378;28;20300;-82
2021/01/26 09:57:33;;;;;;;12.30;4.85;;;;;;;;;;5085968;28;20028;-82
2021/01/26 10:00:00;;;;;;;10.48;4.28;;;;;;;;;;5074891;28;20031;-82
2021/01/26 10:02:26;;;;;;;7.57;4.05;;;;;;;;;;5091222;28;20086;-81
2021/01/26 10:04:52;;;;;;;8.40;4.50;;;;;;;;;;5091614;28;20021;-82
2021/01/26 10:07:18;;;;;;;11.30;4.55;;;;;;;;;;5083140;28;20012;-82
2021/01/26 10:09:44;;;;;;;9.73;6.22;;;;;;;;;;5082523;28;20021;-82
2021/01/26 10:12:22;;;;;;;18.38;7.18;;;;;;;;;;5081721;28;20154;-82
2021/01/26 10:15:06;;;;;;;10.63;4.65;;;;;;;;;;5081747;28;20024;-83
2021/01/26 10:17:32;;;;;;;10.05;5.70;;;;;;;;;;5089026;28;20066;-83
2021/01/26 10:19:58;;;;;;;11.57;5.22;;;;;;;;;;5088363;28;20055;-82
2021/01/26 10:22:23;;;;;;;14.20;4.88;;;;;;;;;;5072972;28;20040;-84
2021/01/26 10:24:49;;;;;;;10.82;4.43;;;;;;;;;;5059528;28;20451;-81
2021/01/26 10:27:23;;;;;;;8.38;5.40;;;;;;;;;;5086277;28;20017;-83
2021/01/26 10:29:49;;;;;;;15.30;4.30;;;;;;;;;;5078508;28;20028;-83
2021/01/26 10:32:34;;;;;;;11.05;4.93;;;;;;;;;;5085013;28;20028;-81
2021/01/26 10:35:00;;;;;;;9.60;3.92;;;;;;;;;;5094697;28;20051;-83
2021/01/26 10:37:27;;;;;;;14.48;4.80;;;;;;;;;;5076447;28;20055;-83
2021/01/26 10:40:17;;;;;;;9.98;4.72;;;;;;;;;;5060369;28;20119;-83
2021/01/26 10:42:58;;;;;;;8.80;4.05;;;;;;;;;;5093572;28;20032;-83
2021/01/26 10:45:34;;;;;;;12.35;5.20;;;;;;;;;;5091178;28;20399;-83
2021/01/26 10:48:06;;;;;;;18.42;4.80;;;;;;;;;;5076645;28;20127;-83
2021/01/26 10:50:32;;;;;;;9.60;4.95;;;;;;;;;;5073200;28;20044;-83
2021/01/26 10:52:57;;;;;;;13.27;5.85;;;;;;;;;;5063863;28;20060;-83
2021/01/26 10:55:23;;;;;;;7.28;4.13;;;;;;;;;;5062565;28;20141;-82
2021/01/26 10:57:50;;;;;;;20.85;5.55;;;;;;;;;;5080760;28;20016;-83
2021/01/26 11:00:18;;;;;;;12.63;5.03;;;;;;;;;;5072558;28;20112;-83
2021/01/26 11:02:44;;;;;;;9.82;5.45;;;;;;;;;;5060771;28;20040;-83
2021/01/26 11:05:11;;;;;;;14.07;6.85;;;;;;;;;;5066400;28;20025;-83
2021/01/26 11:07:37;;;;;;;11.25;6.10;;;;;;;;;;5060663;28;20059;-83
2021/01/26 11:10:04;;;;;;;9.10;5.15;;;;;;;;;;5064167;28;20059;-82
2021/01/26 11:12:30;;;;;;;12.02;5.63;;;;;;;;;;5038608;28;20477;-83
2021/01/26 11:14:55;;;;;;;10.75;5.32;;;;;;;;;;5041969;28;20028;-83
2021/01/26 11:17:22;;;;;;;9.85;4.63;;;;;;;;;;5059343;28;20074;-83
2021/01/26 11:19:47;;;;;;;15.23;4.82;;;;;;;;;;5067016;28;20020;-83
2021/01/26 11:22:13;;;;;;;10.85;5.88;;;;;;;;;;5069731;28;20089;-82
2021/01/26 11:24:39;;;;;;;12.77;6.20;;;;;;;;;;5054494;28;20066;-82
2021/01/26 11:27:05;;;;;;;13.85;5.95;;;;;;;;;;5066157;28;20483;-83
2021/01/26 11:29:31;;;;;;;19.95;7.05;;;;;;;;;;5060679;28;20029;-83
2021/01/26 11:31:57;;;;;;;14.55;5.95;;;;;;;;;;5065543;28;21488;-83
2021/01/26 11:34:22;;;;;;;8.75;5.68;;;;;;;;;;5067542;28;20037;-83
2021/01/26 11:36:48;;;;;;;12.70;6.88;;;;;;;;;;5077454;28;20039;-83
2021/01/26 11:39:14;;;;;;;13.63;6.78;;;;;;;;;;5066739;28;20031;-82
2021/01/26 11:41:40;;;;;;;10.90;5.18;;;;;;;;;;5071489;28;20488;-83
2021/01/26 11:44:06;;;;;;;10.27;5.43;;;;;;;;;;5080191;28;20103;-83
2021/01/26 11:46:31;;;;;;;10.55;4.85;;;;;;;;;;5068936;28;20033;-83
2021/01/26 11:48:57;;;;;;;12.02;5.65;;;;;;;;;;5066915;28;20058;-83
2021/01/26 11:51:23;;;;;;;11.10;5.57;;;;;;;;;;5064525;28;20032;-82
2021/01/26 11:53:49;;;;;;;12.65;6.72;;;;;;;;;;5063918;28;20789;-82
2021/01/26 11:56:14;;;;;;;11.80;6.32;;;;;;;;;;5046086;28;20052;-83
2021/01/26 11:58:40;;;;;;;11.55;5.50;;;;;;;;;;5062999;28;20369;-82
2021/01/26 12:01:06;;;;;;;10.35;5.95;;;;;;;;;;5045586;28;20139;-83
2021/01/26 12:03:33;;;;;;;13.70;5.85;;;;;;;;;;5059137;28;20527;-83
2021/01/26 12:05:58;;;;;;;10.73;5.38;;;;;;;;;;5057774;28;20512;-85
2021/01/26 12:08:24;;;;;;;10.45;5.63;;;;;;;;;;5062552;28;20012;-84
2021/01/26 12:10:50;;;;;;;11.68;4.28;;;;;;;;;;5063701;28;20024;-83
2021/01/26 12:13:16;;;;;;;10.30;5.90;;;;;;;;;;5068300;28;20036;-85
2021/01/26 12:15:42;;;;;;;12.77;6.53;;;;;;;;;;5042174;28;20025;-82
2021/01/26 12:18:08;;;;;;;14.52;6.97;;;;;;;;;;5064914;28;20025;-82
2021/01/26 12:20:34;;;;;;;17.50;9.52;;;;;;;;;;5071582;28;20060;-82
2021/01/26 12:23:00;;;;;;;16.98;7.90;;;;;;;;;;5066995;28;20038;-82
2021/01/26 12:25:26;;;;;;;17.30;8.75;;;;;;;;;;5066000;28;20021;-81
2021/01/26 12:27:52;;;;;;;11.90;6.05;;;;;;;;;;5062310;28;20627;-82
2021/01/26 12:30:18;;;;;;;17.17;7.22;;;;;;;;;;5062467;28;20037;-82
2021/01/26 12:32:44;;;;;;;10.07;4.82;;;;;;;;;;5070870;28;20505;-82
2021/01/26 12:35:12;;;;;;;13.25;5.93;;;;;;;;;;5063042;28;20044;-82
2021/01/26 12:37:38;;;;;;;12.05;6.28;;;;;;;;;;5055869;28;20442;-81
2021/01/26 12:40:04;;;;;;;12.18;5.43;;;;;;;;;;5044512;28;20118;-82
2021/01/26 12:42:30;;;;;;;11.38;5.75;;;;;;;;;;5064067;28;20061;-81
2021/01/26 12:47:14;;;;;;;13.27;7.07;;;;;;;;;;5073958;28;20769;-81
2021/01/26 12:49:40;;;;;;;10.85;6.28;;;;;;;;;;5073921;28;20107;-81
2021/01/26 12:52:06;;;;;;;8.40;4.78;;;;;;;;;;5065692;28;20023;-81
2021/01/26 12:54:32;;;;;;;12.80;5.05;;;;;;;;;;5072803;28;20025;-81
2021/01/26 12:56:57;;;;;;;14.52;5.70;;;;;;;;;;5071201;28;20020;-81
2021/01/26 12:59:23;;;;;;;9.07;6.22;;;;;;;;;;5054019;28;20788;-81
2021/01/26 13:01:49;;;;;;;12.50;5.88;;;;;;;;;;5071281;28;20108;-81
2021/01/26 13:04:14;;;;;;;19.60;7.93;;;;;;;;;;5074168;28;20035;-81
2021/01/26 13:06:40;;;;;;;15.43;6.32;;;;;;;;;;5073298;28;20036;-81
2021/01/26 13:09:06;;;;;;;14.43;7.05;;;;;;;;;;5080450;28;20028;-81
2021/01/26 13:11:33;;;;;;;24.33;7.95;;;;;;;;;;5052767;28;20094;-81
2021/01/26 13:13:59;;;;;;;13.75;6.80;;;;;;;;;;5058778;28;20032;-80
2021/01/26 13:16:24;;;;;;;8.57;5.22;;;;;;;;;;5070837;28;20027;-80
2021/01/26 13:18:51;;;;;;;8.93;4.13;;;;;;;;;;5075891;28;20810;-81
2021/01/26 13:21:16;;;;;;;9.68;4.75;;;;;;;;;;5060803;28;20074;-81
2021/01/26 13:23:42;;;;;;;10.38;5.28;;;;;;;;;;5070850;28;20017;-81
2021/01/26 13:26:08;;;;;;;15.15;6.38;;;;;;;;;;5055380;28;20202;-81
2021/01/26 13:28:34;;;;;;;7.82;5.07;;;;;;;;;;5077654;28;20060;-81
2021/01/26 13:31:00;;;;;;;9.00;5.15;;;;;;;;;;5077441;28;20025;-80
2021/01/26 13:33:25;;;;;;;8.68;4.65;;;;;;;;;;5057262;28;20101;-81
2021/01/26 13:35:51;;;;;;;14.27;4.70;;;;;;;;;;5063480;28;20488;-79
2021/01/26 13:38:17;;;;;;;13.43;5.80;;;;;;;;;;5077828;28;20025;-80
2021/01/26 13:40:42;;;;;;;12.88;6.93;;;;;;;;;;5073603;28;20553;-80
2021/01/26 13:43:08;;;;;;;9.25;5.88;;;;;;;;;;5070459;28;20447;-80
2021/01/26 13:45:34;;;;;;;12.27;6.22;;;;;;;;;;5069886;28;20021;-80
2021/01/26 13:48:01;;;;;;;8.90;5.18;;;;;;;;;;5077693;28;20024;-80
2021/01/26 13:50:28;;;;;;;10.43;5.22;;;;;;;;;;5080087;28;20487;-80
2021/01/26 13:52:54;;;;;;;7.75;4.60;;;;;;;;;;5076794;28;20031;-80
2021/01/26 13:55:21;;;;;;;6.80;4.60;;;;;;;;;;5080139;28;20048;-80
2021/01/26 13:57:48;;;;;;;9.52;5.00;;;;;;;;;;5063655;28;20021;-81
2021/01/26 14:00:14;;;;;;;11.20;5.70;;;;;;;;;;5064831;28;20439;-81
2021/01/26 14:02:40;;;;;;;7.60;4.50;;;;;;;;;;5057517;28;20035;-80
2021/01/26 14:05:06;;;;;;;11.23;5.80;;;;;;;;;;5064890;28;20044;-81
2021/01/26 14:07:32;;;;;;;7.70;4.57;;;;;;;;;;5071791;28;20039;-80
2021/01/26 14:09:58;;;;;;;13.93;4.95;;;;;;;;;;5059970;28;20029;-81
2021/01/26 14:12:23;;;;;;;11.70;6.07;;;;;;;;;;5062289;28;20025;-81
2021/01/26 14:14:49;;;;;;;12.57;5.47;;;;;;;;;;5058601;28;20040;-81
2021/01/26 14:17:15;;;;;;;12.77;5.15;;;;;;;;;;5063418;28;20032;-81
2021/01/26 14:19:40;;;;;;;14.93;5.68;;;;;;;;;;5060559;28;20039;-81
2021/01/26 14:22:06;;;;;;;10.40;5.18;;;;;;;;;;5067969;28;20104;-83
2021/01/26 14:24:32;;;;;;;9.75;5.75;;;;;;;;;;5058076;28;20080;-82
2021/01/26 14:26:57;;;;;;;9.13;4.50;;;;;;;;;;5058521;28;20042;-81
2021/01/26 14:29:23;;;;;;;10.07;5.70;;;;;;;;;;5070315;28;20034;-82
2021/01/26 14:31:49;;;;;;;12.23;6.35;;;;;;;;;;5064309;28;20119;-82
2021/01/26 14:34:14;;;;;;;10.60;6.22;;;;;;;;;;5064090;28;20029;-82
2021/01/26 14:36:40;;;;;;;7.97;4.88;;;;;;;;;;5060792;28;20025;-82
2021/01/26 14:39:06;;;;;;;9.75;4.70;;;;;;;;;;5065197;28;20043;-81
2021/01/26 14:41:31;;;;;;;9.95;4.30;;;;;;;;;;5045242;28;20028;-82
2021/01/26 14:43:57;;;;;;;6.60;3.75;;;;;;;;;;5046379;28;20025;-82
2021/01/26 14:46:27;;;;;;;10.18;4.00;;;;;;;;;;5042753;28;19913;-82
2021/01/26 14:48:53;;;;;;;9.27;4.35;;;;;;;;;;5047141;28;20032;-82
2021/01/26 14:51:19;;;;;;;9.73;4.10;;;;;;;;;;5064420;28;20025;-82
2021/01/26 14:53:45;;;;;;;8.43;4.18;;;;;;;;;;5052307;28;20045;-82
2021/01/26 14:56:11;;;;;;;8.10;3.95;;;;;;;;;;5063893;28;20020;-82
2021/01/26 14:58:37;;;;;;;9.77;4.43;;;;;;;;;;5043115;28;20393;-83
2021/01/26 15:01:03;;;;;;;9.35;4.43;;;;;;;;;;5064651;28;20397;-82
2021/01/26 15:03:28;;;;;;;8.00;4.53;;;;;;;;;;5054387;28;20021;-81
2021/01/26 15:05:54;;;;;;;9.18;4.82;;;;;;;;;;5063348;28;20104;-86
2021/01/26 15:08:20;;;;;;;7.30;4.13;;;;;;;;;;5047978;28;20467;-83
2021/01/26 15:10:45;;;;;;;7.63;3.97;;;;;;;;;;5063337;28;20033;-82
2021/01/26 15:13:11;;;;;;;8.77;4.88;;;;;;;;;;5060200;28;20123;-82
2021/01/26 15:15:37;;;;;;;9.35;5.07;;;;;;;;;;5064714;28;20024;-82
2021/01/26 15:18:03;;;;;;;10.77;5.25;;;;;;;;;;5043241;28;20115;-82
2021/01/26 15:20:28;;;;;;;11.02;5.07;;;;;;;;;;5043018;28;20040;-82
2021/01/26 15:22:54;;;;;;;10.18;3.97;;;;;;;;;;5047519;28;20039;-82
2021/01/26 15:38:01;;;;;;;10.02;3.80;;;;;;;;;;5113656;27;20367;-82
2021/01/26 15:40:28;;;;;;;10.40;4.50;;;;;;;;;;5104883;28;20036;-81
2021/01/26 15:42:53;;;;;;;9.68;3.65;;;;;;;;;;5101436;28;20028;-81
2021/01/26 15:45:20;;;;;;;9.52;4.38;;;;;;;;;;5100569;28;20026;-82
2021/01/26 15:47:45;;;;;;;7.10;3.85;;;;;;;;;;5102106;28;20023;-81
2021/01/26 15:50:11;;;;;;;9.25;4.95;;;;;;;;;;5099024;28;20543;-82
2021/01/26 15:52:37;;;;;;;7.20;4.18;;;;;;;;;;5096538;28;20016;-83
2021/01/26 15:55:03;;;;;;;5.97;4.00;;;;;;;;;;5098875;28;20020;-83
2021/01/26 15:57:29;;;;;;;9.25;3.83;;;;;;;;;;5107045;28;20560;-83
2021/01/26 15:59:55;;;;;;;7.65;3.63;;;;;;;;;;5102875;28;20107;-83
2021/01/26 16:02:20;;;;;;;7.30;3.80;;;;;;;;;;5099158;28;20114;-84
2021/01/26 16:04:46;;;;;;;9.85;4.45;;;;;;;;;;5100776;28;20020;-83
2021/01/26 16:07:13;;;;;;;6.07;3.97;;;;;;;;;;5098445;28;20478;-83
2021/01/26 16:09:39;;;;;;;5.93;3.92;;;;;;;;;;5099719;28;20032;-83
2021/01/26 16:12:05;;;;;;;11.75;4.72;;;;;;;;;;5103768;28;20051;-83
2021/01/26 16:14:31;;;;;;;9.25;5.28;;;;;;;;;;5104347;28;20030;-84
2021/01/26 16:16:56;;;;;;;11.00;4.78;;;;;;;;;;5100653;28;20431;-83
2021/01/26 16:19:22;;;;;;;8.75;5.10;;;;;;;;;;5099530;28;20419;-83
2021/01/26 16:21:48;;;;;;;7.05;3.75;;;;;;;;;;5097092;28;20028;-84
2021/01/26 16:24:13;;;;;;;6.68;4.00;;;;;;;;;;5102275;28;20023;-83
2021/01/26 16:26:43;;;;;;;8.13;3.30;;;;;;;;;;5094516;28;20163;-83
2021/01/26 16:29:09;;;;;;;10.52;3.83;;;;;;;;;;5095721;28;20017;-83
2021/01/26 16:31:35;;;;;;;10.60;4.22;;;;;;;;;;5090908;28;20056;-83
2021/01/26 16:34:01;;;;;;;7.35;3.45;;;;;;;;;;5092511;28;20086;-83
2021/01/26 16:36:28;;;;;;;7.25;3.38;;;;;;;;;;5092753;28;20119;-83
2021/01/26 16:38:53;;;;;;;4.60;3.03;;;;;;;;;;5083664;28;20036;-83
2021/01/26 16:41:19;;;;;;;9.10;3.95;;;;;;;;;;5076384;28;20492;-81
2021/01/26 16:43:45;;;;;;;7.20;3.03;;;;;;;;;;5080112;28;20391;-83
2021/01/26 16:46:10;;;;;;;6.03;2.83;;;;;;;;;;5076272;28;20095;-82
2021/01/26 16:48:36;;;;;;;9.02;3.38;;;;;;;;;;5084653;28;20114;-81
2021/01/26 16:51:02;;;;;;;7.20;3.58;;;;;;;;;;5081884;28;20050;-83
2021/01/26 16:53:28;;;;;;;8.20;3.10;;;;;;;;;;5089285;28;20115;-82
2021/01/26 16:55:53;;;;;;;6.22;3.30;;;;;;;;;;5082893;28;20103;-82
2021/01/26 17:00:37;;;;;;;8.55;4.07;;;;;;;;;;5045490;28;20388;-81
2021/01/26 17:03:03;;;;;;;8.23;4.57;;;;;;;;;;5046833;28;20029;-81
2021/01/26 17:05:33;;;;;;;10.57;5.28;;;;;;;;;;5043325;28;20060;-82
2021/01/26 17:07:58;;;;;;;12.02;7.57;;;;;;;;;;5041235;28;20017;-83
2021/01/26 17:10:24;;;;;;;17.33;9.13;;;;;;;;;;5045913;28;20112;-82
2021/01/26 17:12:50;;;;;;;18.70;9.27;;;;;;;;;;5046382;28;20025;-83
2021/01/26 17:17:35;;;;;;;19.40;10.20;;;;;;;;;;5071177;28;20415;-81
2021/01/26 17:20:00;;;;;;;18.20;10.50;;;;;;;;;;5044103;28;20024;-82
2021/01/26 17:22:26;;;;;;;17.00;10.75;;;;;;;;;;5061301;28;20115;-83
2021/01/26 17:24:53;;;;;;;17.95;10.20;;;;;;;;;;5059901;28;20469;-81
2021/01/26 17:27:19;;;;;;;21.10;11.65;;;;;;;;;;5063189;28;20099;-81
2021/01/26 17:29:45;;;;;;;17.67;9.65;;;;;;;;;;5064035;28;20083;-82
2021/01/26 17:32:10;;;;;;;16.25;9.65;;;;;;;;;;5041870;28;20025;-82
2021/01/26 17:34:36;;;;;;;17.75;10.02;;;;;;;;;;5055465;28;20421;-82
2021/01/26 17:37:02;;;;;;;19.13;11.38;;;;;;;;;;5041229;28;20062;-81
2021/01/26 17:39:28;;;;;;;16.23;9.70;;;;;;;;;;5055605;28;20052;-81
2021/01/26 17:41:54;;;;;;;14.52;8.32;;;;;;;;;;5044931;28;20496;-81
2021/01/26 17:44:23;;;;;;;16.60;8.40;;;;;;;;;;5036771;28;20043;-83
2021/01/26 17:46:49;;;;;;;17.10;9.38;;;;;;;;;;5055948;28;20020;-82
2021/01/26 17:49:15;;;;;;;20.10;10.23;;;;;;;;;;5060287;28;20025;-82
2021/01/26 17:51:41;;;;;;;15.55;7.93;;;;;;;;;;5037164;28;20048;-82
2021/01/26 17:54:07;;;;;;;14.15;8.68;;;;;;;;;;5037589;28;20028;-82
2021/01/26 17:56:33;;;;;;;14.23;7.85;;;;;;;;;;5053243;28;20031;-83
2021/01/26 17:58:59;;;;;;;13.38;7.00;;;;;;;;;;5064457;28;20055;-82
2021/01/26 18:01:24;;;;;;;10.40;7.13;;;;;;;;;;5060153;28;20047;-82
2021/01/26 18:03:51;;;;;;;8.60;5.65;;;;;;;;;;5065594;28;20100;-82
2021/01/26 18:06:17;;;;;;;11.65;6.50;;;;;;;;;;5058576;28;20025;-82
2021/01/26 18:08:43;;;;;;;9.73;5.68;;;;;;;;;;5061929;28;20025;-82
2021/01/26 18:11:08;;;;;;;10.20;5.93;;;;;;;;;;5046790;28;20035;-82
2021/01/26 18:13:34;;;;;;;10.55;6.03;;;;;;;;;;5059861;28;20108;-82
2021/01/26 18:15:59;;;;;;;10.55;4.82;;;;;;;;;;5049554;28;20108;-80
2021/01/26 18:18:25;;;;;;;10.70;5.00;;;;;;;;;;5064103;28;20033;-80
2021/01/26 18:20:51;;;;;;;10.35;5.13;;;;;;;;;;5042373;28;20022;-80
2021/01/26 18:23:17;;;;;;;7.03;4.15;;;;;;;;;;5059064;28;20107;-80
2021/01/26 18:28:01;;;;;;;8.25;5.10;;;;;;;;;;5114635;27;20375;-81
2021/01/26 18:30:27;;;;;;;8.25;4.05;;;;;;;;;;5109837;27;20040;-81
2021/01/26 18:32:53;;;;;;;8.32;5.05;;;;;;;;;;5110858;28;20035;-81
2021/01/26 18:35:22;;;;;;;10.02;4.80;;;;;;;;;;5111877;28;20081;-81
2021/01/26 18:37:48;;;;;;;8.25;4.38;;;;;;;;;;5099736;28;20032;-83
2021/01/26 18:40:14;;;;;;;8.82;4.63;;;;;;;;;;5099668;28;20042;-81
2021/01/26 18:42:40;;;;;;;15.57;5.05;;;;;;;;;;5101596;28;20051;-81
2021/01/26 18:45:07;;;;;;;7.63;3.63;;;;;;;;;;5110540;28;20099;-81
2021/01/26 18:47:34;;;;;;;10.88;4.72;;;;;;;;;;5104568;28;20024;-81
2021/01/26 18:49:59;;;;;;;6.93;4.05;;;;;;;;;;5110805;28;20051;-81
2021/01/26 18:52:27;;;;;;;10.43;4.88;;;;;;;;;;5103268;28;20027;-81
2021/01/26 18:54:52;;;;;;;6.65;3.95;;;;;;;;;;5099744;28;20023;-81
2021/01/26 18:57:18;;;;;;;7.40;4.00;;;;;;;;;;5104664;28;20019;-81
2021/01/26 18:59:44;;;;;;;9.27;4.32;;;;;;;;;;5107770;28;20112;-81
2021/01/26 19:02:12;;;;;;;7.10;3.95;;;;;;;;;;5119202;28;20037;-82
2021/01/26 19:04:38;;;;;;;7.45;3.67;;;;;;;;;;5118414;27;20024;-82
2021/01/26 19:07:03;;;;;;;5.07;3.35;;;;;;;;;;5111673;28;20030;-82
2021/01/26 19:09:29;;;;;;;7.75;4.07;;;;;;;;;;5115226;27;20036;-82
2021/01/26 19:11:55;;;;;;;7.07;4.32;;;;;;;;;;5110865;28;20111;-82
2021/01/26 19:14:20;;;;;;;9.52;3.75;;;;;;;;;;5120516;28;20662;-82
2021/01/26 19:16:46;;;;;;;7.65;3.80;;;;;;;;;;5106487;28;20040;-82
2021/01/26 19:19:12;;;;;;;9.43;3.45;;;;;;;;;;5103675;28;20024;-82
2021/01/26 19:21:37;;;;;;;6.75;3.60;;;;;;;;;;5100958;28;20369;-82
2021/01/26 19:24:04;;;;;;;7.50;4.15;;;;;;;;;;5099525;27;20035;-82
2021/01/26 19:26:30;;;;;;;7.20;4.45;;;;;;;;;;5101132;28;20548;-82
2021/01/26 19:28:58;;;;;;;7.70;4.93;;;;;;;;;;5106465;28;20039;-82
2021/01/26 19:31:31;;;;;;;7.78;4.03;;;;;;;;;;5101077;28;20062;-82
2021/01/26 19:34:00;;;;;;;7.20;3.75;;;;;;;;;;5105981;28;20038;-82
2021/01/26 19:36:25;;;;;;;11.30;4.70;;;;;;;;;;5106189;28;20037;-82
2021/01/26 19:38:52;;;;;;;12.88;5.45;;;;;;;;;;5094504;28;20552;-81
2021/01/26 19:41:18;;;;;;;9.80;5.85;;;;;;;;;;5100077;28;20020;-81
2021/01/26 19:43:43;;;;;;;15.32;6.30;;;;;;;;;;5099552;28;20047;-81
2021/01/26 19:46:09;;;;;;;10.88;5.90;;;;;;;;;;5085903;28;20068;-82
2021/01/26 19:48:38;;;;;;;17.45;10.13;;;;;;;;;;5089368;28;20025;-82
2021/01/26 19:51:04;;;;;;;26.83;14.30;;;;;;;;;;5091188;28;20047;-83
2021/01/26 19:53:29;;;;;;;45.72;25.48;;;;;;;;;;5085261;28;20048;-82
2021/01/26 19:55:56;;;;;;;46.25;25.38;;;;;;;;;;5101270;28;20024;-82
2021/01/26 19:58:21;;;;;;;34.85;19.17;;;;;;;;;;5101582;28;20808;-82
2021/01/26 20:00:47;;;;;;;29.38;17.35;;;;;;;;;;5092740;28;20106;-81
2021/01/26 20:03:15;;;;;;;34.22;19.50;;;;;;;;;;5096374;28;20024;-81
2021/01/26 20:05:40;;;;;;;34.38;18.88;;;;;;;;;;5095253;28;20012;-81
2021/01/26 20:08:07;;;;;;;29.88;17.05;;;;;;;;;;5095187;28;20039;-81
2021/01/26 20:10:46;;;;;;;25.85;14.85;;;;;;;;;;5089246;28;20032;-81
2021/01/26 20:13:12;;;;;;;24.52;14.02;;;;;;;;;;5094945;28;20073;-81
2021/01/26 20:15:37;;;;;;;20.20;13.23;;;;;;;;;;5097769;28;20016;-81
2021/01/26 20:18:04;;;;;;;18.13;10.48;;;;;;;;;;5102028;28;20019;-82
2021/01/26 20:20:29;;;;;;;20.60;10.98;;;;;;;;;;5097826;28;20020;-81
2021/01/26 20:22:55;;;;;;;17.15;10.07;;;;;;;;;;5095067;28;20054;-82
2021/01/26 20:25:22;;;;;;;18.52;10.75;;;;;;;;;;5098150;28;20077;-82
2021/01/26 20:27:48;;;;;;;14.95;8.27;;;;;;;;;;5096311;28;20025;-81
2021/01/26 20:30:16;;;;;;;14.02;8.65;;;;;;;;;;5082602;28;20067;-81
2021/01/26 20:32:42;;;;;;;13.32;8.20;;;;;;;;;;5091641;28;20019;-81
2021/01/26 20:35:07;;;;;;;13.20;8.35;;;;;;;;;;5089999;28;20096;-82
2021/01/26 20:37:33;;;;;;;17.23;9.13;;;;;;;;;;5085975;28;20029;-82
2021/01/26 20:39:59;;;;;;;9.88;6.35;;;;;;;;;;5104190;28;20480;-82
2021/01/26 20:42:25;;;;;;;11.25;6.65;;;;;;;;;;5105910;27;20023;-82
2021/01/26 20:44:50;;;;;;;13.82;6.18;;;;;;;;;;5095570;28;20032;-82
2021/01/26 20:47:16;;;;;;;11.05;6.22;;;;;;;;;;5098948;28;19915;-81